createdAt,value
2023-05-06T00:01:10.393Z,72.36
2023-05-06T00:03:37.297Z,72.50
2023-05-06T00:06:06.361Z,72.29
2023-05-06T00:08:33.090Z,72.35
2023-05-06T00:11:00.030Z,72.48
2023-05-06T00:13:26.676Z,72.38
2023-05-06T00:15:53.744Z,72.48
2023-05-06T00:18:22.486Z,72.37
2023-05-06T00:20:49.418Z,72.59
2023-05-06T00:23:16.417Z,72.34
2023-05-06T00:25:43.095Z,72.48
2023-05-06T00:28:09.657Z,72.40
2023-05-06T00:30:36.354Z,72.55
2023-05-06T00:33:03.513Z,72.68
2023-05-06T00:35:30.743Z,72.28
2023-05-06T00:38:14.399Z,72.47
2023-05-06T00:40:41.445Z,72.47
2023-05-06T00:43:08.224Z,72.39
2023-05-06T00:45:35.988Z,72.47
2023-05-06T00:48:04.565Z,72.42
2023-05-06T00:50:33.414Z,72.42
2023-05-06T00:53:03.257Z,72.15
2023-05-06T00:55:31.251Z,72.51
2023-05-06T00:57:58.297Z,72.42
2023-05-06T01:00:25.258Z,72.51
2023-05-06T01:02:52.017Z,72.51
2023-05-06T01:05:24.022Z,72.42
2023-05-06T01:07:59.926Z,72.45
2023-05-06T01:10:46.744Z,72.46
2023-05-06T01:13:37.362Z,72.43
2023-05-06T01:16:06.238Z,72.39
2023-05-06T01:18:33.722Z,72.38
2023-05-06T01:21:02.061Z,72.54
2023-05-06T01:23:28.696Z,72.37
2023-05-06T01:25:55.431Z,72.32
2023-05-06T01:28:22.370Z,72.34
2023-05-06T01:30:54.898Z,72.34
2023-05-06T01:33:46.751Z,72.40
2023-05-06T01:36:20.498Z,72.32
2023-05-06T01:38:50.097Z,72.13
2023-05-06T01:41:17.966Z,72.49
2023-05-06T01:43:47.574Z,72.44
2023-05-06T01:46:22.416Z,72.42
2023-05-06T01:48:55.227Z,72.52
2023-05-06T01:51:22.905Z,72.39
2023-05-06T01:53:49.728Z,72.44
2023-05-06T01:56:17.604Z,72.40
2023-05-06T01:58:44.284Z,72.49
2023-05-06T02:01:11.196Z,72.51
2023-05-06T02:03:37.927Z,72.53
2023-05-06T02:06:04.908Z,72.71
2023-05-06T02:08:31.835Z,72.64
2023-05-06T02:10:58.440Z,72.75
2023-05-06T02:13:25.199Z,73.01
2023-05-06T02:15:55.186Z,72.90
2023-05-06T02:18:22.209Z,72.90
2023-05-06T02:20:49.017Z,73.02
2023-05-06T02:23:15.752Z,72.92
2023-05-06T02:25:43.232Z,72.99
2023-05-06T02:28:14.420Z,73.10
2023-05-06T02:30:41.258Z,73.17
2023-05-06T02:33:07.975Z,73.07
2023-05-06T02:35:34.946Z,73.10
2023-05-06T02:38:01.739Z,72.66
2023-05-06T02:40:28.317Z,73.07
2023-05-06T02:42:54.922Z,72.89
2023-05-06T02:45:21.922Z,72.85
2023-05-06T02:47:48.632Z,73.10
2023-05-06T02:50:16.928Z,72.98
2023-05-06T02:52:45.111Z,73.10
2023-05-06T02:55:11.825Z,73.19
2023-05-06T02:57:38.579Z,73.26
2023-05-06T03:00:06.736Z,73.29
2023-05-06T03:02:33.544Z,73.51
2023-05-06T03:05:00.193Z,73.55
2023-05-06T03:07:27.170Z,73.53
2023-05-06T03:09:53.828Z,73.71
2023-05-06T03:12:20.687Z,73.54
2023-05-06T03:14:47.649Z,73.58
2023-05-06T03:17:14.383Z,73.69
2023-05-06T03:19:41.040Z,73.68
2023-05-06T03:22:08.169Z,73.70
2023-05-06T03:24:34.847Z,73.72
2023-05-06T03:27:01.854Z,73.78
2023-05-06T03:29:28.644Z,74.02
2023-05-06T03:31:58.401Z,73.87
2023-05-06T03:34:25.318Z,73.87
2023-05-06T03:36:52.036Z,73.76
2023-05-06T03:39:18.615Z,73.91
2023-05-06T03:41:45.667Z,74.15
2023-05-06T03:44:12.631Z,73.97
2023-05-06T03:46:40.216Z,74.09
2023-05-06T03:49:07.222Z,74.06
2023-05-06T03:51:34.376Z,74.21
2023-05-06T03:54:01.932Z,74.00
2023-05-06T03:56:28.605Z,74.09
2023-05-06T03:58:55.487Z,74.21
2023-05-06T04:01:22.235Z,74.33
2023-05-06T04:03:48.893Z,74.42
2023-05-06T04:06:16.088Z,74.70
2023-05-06T04:08:42.737Z,74.62
2023-05-06T04:11:09.292Z,74.63
2023-05-06T04:13:36.338Z,74.63
2023-05-06T04:16:04.054Z,74.90
2023-05-06T04:18:31.671Z,74.90
2023-05-06T04:23:27.996Z,75.00
2023-05-06T04:25:54.738Z,75.12
2023-05-06T04:28:22.164Z,75.37
2023-05-06T04:30:48.811Z,75.46
2023-05-06T04:33:15.970Z,75.42
2023-05-06T04:35:53.877Z,75.37
2023-05-06T04:38:25.882Z,75.69
2023-05-06T04:40:52.845Z,75.88
2023-05-06T04:43:19.826Z,75.99
2023-05-06T04:45:49.447Z,76.27
2023-05-06T04:48:18.419Z,76.11
2023-05-06T04:50:45.619Z,76.49
2023-05-06T04:53:14.383Z,76.54
2023-05-06T04:55:40.998Z,76.81
2023-05-06T04:58:08.068Z,77.02
2023-05-06T05:00:35.088Z,76.96
2023-05-06T05:03:02.221Z,77.33
2023-05-06T05:05:29.337Z,77.32
2023-05-06T05:07:56.669Z,77.58
2023-05-06T05:10:23.279Z,77.66
2023-05-06T05:12:50.126Z,77.50
2023-05-06T05:15:17.103Z,77.80
2023-05-06T05:17:44.594Z,77.94
2023-05-06T05:20:11.598Z,78.04
2023-05-06T05:22:38.458Z,78.04
2023-05-06T05:25:07.758Z,78.23
2023-05-06T05:27:35.207Z,78.16
2023-05-06T05:30:02.024Z,78.24
2023-05-06T05:32:28.658Z,78.45
2023-05-06T05:34:55.699Z,78.23
2023-05-06T05:37:22.405Z,78.57
2023-05-06T05:39:49.108Z,78.75
2023-05-06T05:42:16.099Z,78.62
2023-05-06T05:44:42.781Z,78.58
2023-05-06T05:47:09.359Z,78.45
2023-05-06T05:49:36.334Z,78.47
2023-05-06T05:52:03.127Z,78.46
2023-05-06T05:54:29.865Z,78.47
2023-05-06T05:56:56.750Z,78.44
2023-05-06T05:59:23.489Z,78.49
2023-05-06T06:01:50.087Z,78.25
2023-05-06T06:04:17.036Z,78.02
2023-05-06T06:06:43.874Z,77.70
2023-05-06T06:09:11.129Z,77.46
2023-05-06T06:11:38.004Z,77.04
2023-05-06T06:14:04.742Z,76.55
2023-05-06T06:16:32.957Z,76.04
2023-05-06T06:19:00.140Z,75.63
2023-05-06T06:21:27.741Z,75.33
2023-05-06T06:23:54.352Z,74.64
2023-05-06T06:26:21.448Z,74.04
2023-05-06T06:28:48.235Z,73.22
2023-05-06T06:31:14.967Z,72.53
2023-05-06T06:33:41.866Z,71.83
2023-05-06T06:36:08.855Z,70.96
2023-05-06T06:38:35.817Z,70.08
2023-05-06T06:41:02.578Z,69.27
2023-05-06T06:43:29.317Z,68.14
2023-05-06T06:45:56.447Z,67.17
2023-05-06T06:48:25.134Z,66.40
2023-05-06T06:50:52.160Z,65.68
2023-05-06T06:53:18.750Z,64.63
2023-05-06T06:55:45.889Z,63.91
2023-05-06T06:58:12.654Z,62.71
2023-05-06T07:00:39.299Z,61.99
2023-05-06T07:03:06.185Z,61.17
2023-05-06T07:05:32.989Z,59.97
2023-05-06T07:07:59.610Z,58.95
2023-05-06T07:10:26.849Z,58.06
2023-05-06T07:12:54.259Z,57.44
2023-05-06T07:15:21.076Z,56.83
2023-05-06T07:17:48.006Z,55.94
2023-05-06T07:20:16.358Z,55.77
2023-05-06T07:22:43.773Z,55.38
2023-05-06T07:25:11.064Z,54.76
2023-05-06T07:27:38.218Z,54.31
2023-05-06T07:30:05.473Z,53.64
2023-05-06T07:32:32.346Z,52.80
2023-05-06T07:34:59.066Z,51.84
2023-05-06T07:37:25.702Z,51.04
2023-05-06T07:39:52.854Z,50.94
2023-05-06T07:42:19.693Z,49.91
2023-05-06T07:44:46.311Z,49.21
2023-05-06T07:47:17.672Z,49.09
2023-05-06T07:49:44.353Z,48.77
2023-05-06T07:52:11.080Z,47.56
2023-05-06T07:54:37.868Z,46.77
2023-05-06T07:57:04.978Z,45.57
2023-05-06T07:59:31.555Z,45.35
2023-05-06T08:01:58.285Z,45.06
2023-05-06T08:04:25.046Z,45.77
2023-05-06T08:06:52.196Z,45.49
2023-05-06T08:09:23.096Z,45.10
2023-05-06T08:11:50.782Z,44.31
2023-05-06T08:14:17.371Z,44.43
2023-05-06T08:16:44.083Z,44.63
2023-05-06T08:19:10.700Z,44.16
2023-05-06T08:21:37.351Z,43.81
2023-05-06T08:24:04.458Z,42.81
2023-05-06T08:26:31.118Z,42.86
2023-05-06T08:28:58.868Z,43.24
2023-05-06T08:31:25.452Z,43.12
2023-05-06T08:33:54.420Z,42.87
2023-05-06T08:36:22.177Z,42.56
2023-05-06T08:38:51.055Z,42.32
2023-05-06T08:41:19.404Z,41.95
2023-05-06T08:43:47.901Z,41.44
2023-05-06T08:46:15.232Z,41.91
2023-05-06T08:48:42.128Z,41.72
2023-05-06T08:51:09.436Z,41.31
2023-05-06T08:53:36.604Z,41.24
2023-05-06T08:56:08.845Z,41.27
2023-05-06T08:58:38.788Z,41.16
2023-05-06T09:01:06.242Z,41.40
2023-05-06T09:03:32.944Z,41.21
2023-05-06T09:05:59.976Z,40.70
2023-05-06T09:08:26.640Z,40.41
2023-05-06T09:10:53.213Z,39.98
2023-05-06T09:13:20.155Z,39.85
2023-05-06T09:15:48.639Z,39.46
2023-05-06T09:18:16.572Z,39.05
2023-05-06T09:20:46.533Z,39.54
2023-05-06T09:23:15.359Z,38.61
2023-05-06T09:25:43.779Z,38.05
2023-05-06T09:28:11.766Z,37.71
2023-05-06T09:30:43.563Z,37.53
2023-05-06T09:33:11.475Z,37.63
2023-05-06T09:35:42.949Z,38.09
2023-05-06T09:38:10.742Z,38.25
2023-05-06T09:40:39.164Z,38.46
2023-05-06T09:43:06.289Z,38.63
2023-05-06T09:45:33.348Z,37.95
2023-05-06T09:48:01.197Z,37.24
2023-05-06T09:50:28.464Z,36.79
2023-05-06T09:52:56.275Z,37.17
2023-05-06T09:55:29.682Z,38.01
2023-05-06T09:57:58.317Z,37.57
2023-05-06T10:00:28.442Z,37.22
2023-05-06T10:02:56.067Z,36.07
2023-05-06T10:05:25.792Z,35.47
2023-05-06T10:07:53.545Z,35.91
2023-05-06T10:10:22.318Z,35.73
2023-05-06T10:12:50.747Z,35.83
2023-05-06T10:15:17.588Z,36.56
2023-05-06T10:17:48.478Z,36.99
2023-05-06T10:20:17.489Z,36.61
2023-05-06T10:22:47.425Z,35.98
2023-05-06T10:25:23.886Z,36.05
2023-05-06T10:27:51.265Z,35.06
2023-05-06T10:30:19.786Z,34.78
2023-05-06T10:32:47.031Z,34.76
2023-05-06T10:35:27.747Z,34.29
2023-05-06T10:37:57.035Z,34.96
2023-05-06T10:40:24.434Z,35.24
2023-05-06T10:42:51.524Z,35.10
2023-05-06T10:45:18.667Z,34.46
2023-05-06T10:47:57.804Z,33.74
2023-05-06T10:50:26.434Z,34.17
2023-05-06T10:52:59.459Z,34.47
2023-05-06T10:55:32.142Z,34.64
2023-05-06T10:58:04.643Z,35.18
2023-05-06T11:00:32.904Z,35.84
2023-05-06T11:03:06.534Z,36.68
2023-05-06T11:05:48.249Z,37.27
2023-05-06T11:08:15.849Z,37.16
2023-05-06T11:10:42.771Z,36.57
2023-05-06T11:13:24.962Z,36.47
2023-05-06T11:15:52.444Z,36.59
2023-05-06T11:18:24.910Z,36.26
2023-05-06T11:21:12.849Z,36.87
2023-05-06T11:23:42.740Z,37.10
2023-05-06T11:26:11.267Z,36.74
2023-05-06T11:28:49.353Z,37.49
2023-05-06T11:31:17.004Z,37.92
2023-05-06T11:33:52.755Z,37.45
2023-05-06T11:36:21.370Z,35.86
2023-05-06T11:38:51.192Z,35.27
2023-05-06T11:41:18.997Z,34.87
2023-05-06T11:43:53.857Z,34.87
2023-05-06T11:46:22.187Z,34.87
2023-05-06T11:48:50.454Z,35.26
2023-05-06T11:51:22.683Z,35.30
2023-05-06T11:53:49.608Z,35.71
2023-05-06T11:56:16.322Z,36.01
2023-05-06T11:58:43.315Z,36.35
2023-05-06T12:01:09.993Z,36.58
2023-05-06T12:03:36.788Z,36.94
2023-05-06T12:06:03.816Z,37.21
2023-05-06T12:08:33.427Z,37.53
2023-05-06T12:11:02.547Z,37.72
2023-05-06T12:13:30.088Z,38.02
2023-05-06T12:15:59.645Z,38.33
2023-05-06T12:18:27.287Z,38.85
2023-05-06T12:20:55.177Z,38.75
2023-05-06T12:23:25.072Z,38.47
2023-05-06T12:26:06.269Z,38.50
2023-05-06T12:28:36.354Z,38.71
2023-05-06T12:31:22.527Z,38.89
2023-05-06T12:33:50.722Z,38.67
2023-05-06T12:36:18.470Z,38.78
2023-05-06T12:39:00.153Z,38.91
2023-05-06T12:41:56.113Z,39.05
2023-05-06T12:44:37.171Z,39.04
2023-05-06T12:47:09.073Z,38.96
2023-05-06T12:49:49.579Z,38.29
2023-05-06T12:52:17.682Z,37.96
2023-05-06T12:54:44.618Z,38.01
2023-05-06T12:57:11.634Z,37.94
2023-05-06T12:59:39.077Z,37.26
2023-05-06T13:02:06.448Z,36.59
2023-05-06T13:04:33.470Z,36.11
2023-05-06T13:07:00.152Z,36.14
2023-05-06T13:09:27.023Z,36.33
2023-05-06T13:11:54.155Z,36.85
2023-05-06T13:14:21.936Z,37.41
2023-05-06T13:16:49.758Z,38.12
2023-05-06T13:21:46.742Z,38.92
2023-05-06T13:24:13.335Z,39.04
2023-05-06T13:26:40.299Z,39.33
2023-05-06T13:29:07.104Z,39.48
2023-05-06T13:31:34.871Z,39.69
2023-05-06T13:34:01.824Z,39.81
2023-05-06T13:36:28.636Z,39.99
2023-05-06T13:38:55.784Z,39.90
2023-05-06T13:41:22.553Z,40.12
2023-05-06T13:43:49.679Z,40.17
2023-05-06T13:46:16.421Z,40.01
2023-05-06T13:48:43.374Z,39.92
2023-05-06T13:51:10.007Z,39.81
2023-05-06T13:53:36.646Z,40.08
2023-05-06T13:56:03.582Z,40.11
2023-05-06T13:58:31.071Z,40.62
2023-05-06T14:00:57.645Z,40.50
2023-05-06T14:03:24.426Z,40.58
2023-05-06T14:05:51.772Z,40.57
2023-05-06T14:08:18.465Z,40.65
2023-05-06T14:13:12.409Z,40.64
2023-05-06T14:15:38.983Z,40.87
2023-05-06T14:18:06.181Z,40.92
2023-05-06T14:20:32.922Z,41.11
2023-05-06T14:22:59.541Z,41.15
2023-05-06T14:25:27.003Z,41.17
2023-05-06T14:27:54.485Z,41.27
2023-05-06T14:30:21.790Z,41.94
2023-05-06T14:32:48.866Z,41.92
2023-05-06T14:35:15.505Z,42.07
2023-05-06T14:37:42.089Z,42.04
2023-05-06T14:40:10.266Z,42.49
2023-05-06T14:42:37.248Z,42.83
2023-05-06T14:45:04.627Z,42.94
2023-05-06T14:47:31.665Z,43.20
2023-05-06T14:49:58.508Z,43.26
2023-05-06T14:52:25.529Z,43.29
2023-05-06T14:54:52.727Z,43.28
2023-05-06T14:57:19.359Z,43.47
2023-05-06T14:59:46.181Z,43.70
2023-05-06T15:02:13.164Z,43.79
2023-05-06T15:04:39.822Z,43.89
2023-05-06T15:07:06.418Z,44.17
2023-05-06T15:09:33.147Z,44.21
2023-05-06T15:12:00.532Z,44.18
2023-05-06T15:14:27.162Z,44.27
2023-05-06T15:16:57.136Z,44.37
2023-05-06T15:19:24.218Z,44.20
2023-05-06T15:21:51.052Z,44.15
2023-05-06T15:24:18.227Z,44.04
2023-05-06T15:26:44.930Z,43.80
2023-05-06T15:29:11.655Z,44.04
2023-05-06T15:31:41.082Z,44.20
2023-05-06T15:34:10.632Z,43.78
2023-05-06T15:36:37.724Z,43.92
2023-05-06T15:39:04.918Z,43.98
2023-05-06T15:41:32.933Z,43.88
2023-05-06T15:44:01.220Z,43.74
2023-05-06T15:46:29.246Z,43.58
2023-05-06T15:49:17.449Z,43.75
2023-05-06T15:51:43.766Z,43.42
2023-05-06T15:54:10.452Z,43.69
2023-05-06T15:56:41.033Z,43.61
2023-05-06T15:59:08.809Z,43.50
2023-05-06T16:02:19.060Z,43.36
2023-05-06T16:04:23.027Z,43.42
2023-05-06T16:06:49.931Z,43.33
2023-05-06T16:09:16.582Z,43.27
2023-05-06T16:11:43.416Z,43.24
2023-05-06T16:14:10.038Z,43.30
2023-05-06T16:16:36.839Z,43.49
2023-05-06T16:19:03.971Z,43.33
2023-05-06T16:21:30.662Z,43.48
2023-05-06T16:23:57.393Z,43.30
2023-05-06T16:26:24.720Z,43.56
2023-05-06T16:28:51.550Z,43.58
2023-05-06T16:31:18.291Z,43.93
2023-05-06T16:33:45.176Z,43.84
2023-05-06T16:36:12.587Z,44.03
2023-05-06T16:38:39.303Z,44.06
2023-05-06T16:41:06.145Z,44.22
2023-05-06T16:43:32.703Z,44.46
2023-05-06T16:46:00.353Z,44.47
2023-05-06T16:48:27.210Z,44.35
2023-05-06T16:50:53.826Z,44.59
2023-05-06T16:53:24.869Z,44.77
2023-05-06T16:55:51.856Z,44.89
2023-05-06T16:58:18.491Z,45.17
2023-05-06T17:00:45.349Z,45.35
2023-05-06T17:03:12.443Z,45.27
2023-05-06T17:05:39.188Z,45.41
2023-05-06T17:08:06.908Z,45.48
2023-05-06T17:10:33.780Z,45.61
2023-05-06T17:13:00.701Z,45.70
2023-05-06T17:15:27.386Z,46.27
2023-05-06T17:17:54.462Z,46.52
2023-05-06T17:20:21.245Z,46.50
2023-05-06T17:22:48.036Z,46.51
2023-05-06T17:25:15.604Z,46.49
2023-05-06T17:27:42.360Z,46.28
2023-05-06T17:30:12.422Z,46.47
2023-05-06T17:32:40.322Z,46.55
2023-05-06T17:35:07.707Z,46.25
2023-05-06T17:37:34.878Z,46.40
2023-05-06T17:40:02.325Z,46.33
2023-05-06T17:42:30.027Z,46.38
2023-05-06T17:44:56.736Z,46.32
2023-05-06T17:47:23.753Z,46.28
2023-05-06T17:49:52.908Z,46.04
2023-05-06T17:52:20.141Z,46.10
2023-05-06T17:54:57.113Z,46.26
2023-05-06T17:57:34.029Z,46.25
2023-05-06T18:00:00.844Z,46.26
2023-05-06T18:02:27.565Z,46.24
2023-05-06T18:04:54.393Z,46.05
2023-05-06T18:07:21.258Z,46.06
2023-05-06T18:09:52.372Z,46.11
2023-05-06T18:12:20.112Z,46.10
2023-05-06T18:14:47.946Z,46.16
2023-05-06T18:17:14.668Z,46.17
2023-05-06T18:19:41.440Z,46.31
2023-05-06T18:22:08.087Z,46.34
2023-05-06T18:24:34.734Z,46.38
2023-05-06T18:27:02.350Z,46.57
2023-05-06T18:29:30.503Z,46.53
2023-05-06T18:31:57.383Z,46.21
2023-05-06T18:34:24.048Z,46.40
2023-05-06T18:36:50.883Z,46.22
2023-05-06T18:39:17.557Z,46.00
2023-05-06T18:41:44.498Z,45.87
2023-05-06T18:44:12.282Z,45.65
2023-05-06T18:46:38.936Z,45.56
2023-05-06T18:49:05.900Z,45.70
2023-05-06T18:51:32.796Z,45.53
2023-05-06T18:53:59.532Z,45.59
2023-05-06T18:56:26.214Z,45.70
2023-05-06T18:58:53.028Z,45.90
2023-05-06T19:01:19.703Z,46.11
2023-05-06T19:03:46.899Z,45.96
2023-05-06T19:06:13.735Z,46.11
2023-05-06T19:08:40.816Z,46.02
2023-05-06T19:11:14.516Z,46.17
2023-05-06T19:13:43.464Z,46.03
2023-05-06T19:16:10.175Z,46.03
2023-05-06T19:18:37.086Z,45.88
2023-05-06T19:21:03.901Z,45.76
2023-05-06T19:23:32.142Z,45.57
2023-05-06T19:25:58.846Z,45.49
2023-05-06T19:28:25.577Z,45.66
2023-05-06T19:30:52.500Z,45.63
2023-05-06T19:33:19.344Z,45.63
2023-05-06T19:35:46.151Z,45.62
2023-05-06T19:38:12.870Z,45.78
2023-05-06T19:40:39.716Z,45.68
2023-05-06T19:43:06.311Z,45.55
2023-05-06T19:45:34.138Z,45.51
2023-05-06T19:48:04.186Z,45.67
2023-05-06T19:50:33.285Z,45.69
2023-05-06T19:52:59.916Z,45.66
2023-05-06T19:55:26.746Z,45.34
2023-05-06T19:57:56.967Z,45.42
2023-05-06T20:00:25.457Z,45.22
2023-05-06T20:02:52.397Z,45.18
2023-05-06T20:05:19.246Z,45.25
2023-05-06T20:07:46.127Z,45.33
2023-05-06T20:10:13.742Z,45.65
2023-05-06T20:12:43.493Z,46.13
2023-05-06T20:15:10.618Z,46.31
2023-05-06T20:17:37.505Z,46.39
2023-05-06T20:20:09.669Z,46.78
2023-05-06T20:22:40.438Z,47.10
2023-05-06T20:25:09.529Z,47.25
2023-05-06T20:27:36.462Z,47.55
2023-05-06T20:30:03.461Z,47.78
2023-05-06T20:32:31.318Z,47.75
2023-05-06T20:34:58.354Z,47.90
2023-05-06T20:37:25.793Z,47.85
2023-05-06T20:39:52.479Z,48.08
2023-05-06T20:42:19.073Z,48.29
2023-05-06T20:44:45.877Z,48.35
2023-05-06T20:47:12.814Z,48.42
2023-05-06T20:49:39.878Z,48.58
2023-05-06T20:52:07.937Z,48.89
2023-05-06T20:54:34.850Z,49.03
2023-05-06T20:57:02.571Z,49.12
2023-05-06T20:59:29.734Z,49.34
2023-05-06T21:01:56.706Z,49.34
2023-05-06T21:04:23.408Z,49.23
2023-05-06T21:06:50.413Z,49.43
2023-05-06T21:09:18.339Z,49.64
2023-05-06T21:11:45.308Z,49.73
2023-05-06T21:14:12.808Z,49.59
2023-05-06T21:16:40.582Z,49.72
2023-05-06T21:19:07.612Z,49.76
2023-05-06T21:21:34.793Z,49.78
2023-05-06T21:24:01.707Z,49.89
2023-05-06T21:26:30.334Z,50.09
2023-05-06T21:28:57.190Z,50.42
2023-05-06T21:31:25.243Z,50.71
2023-05-06T21:33:55.307Z,50.84
2023-05-06T21:36:22.137Z,50.80
2023-05-06T21:39:00.969Z,50.45
2023-05-06T21:41:28.425Z,50.34
2023-05-06T21:43:55.144Z,49.95
2023-05-06T21:46:21.804Z,49.76
2023-05-06T21:48:48.671Z,49.65
2023-05-06T21:51:15.306Z,49.75
2023-05-06T21:53:41.868Z,49.69
2023-05-06T21:56:08.592Z,49.91
2023-05-06T21:58:35.196Z,50.09
2023-05-06T22:01:01.773Z,50.24
2023-05-06T22:03:28.809Z,50.05
2023-05-06T22:05:55.668Z,50.21
2023-05-06T22:08:22.309Z,50.17
2023-05-06T22:10:49.421Z,50.22
2023-05-06T22:13:16.526Z,50.19
2023-05-06T22:15:43.467Z,50.18
2023-05-06T22:18:10.449Z,50.20
2023-05-06T22:20:37.600Z,50.01
2023-05-06T22:23:04.372Z,49.85
2023-05-06T22:25:31.624Z,49.77
2023-05-06T22:27:58.267Z,49.81
2023-05-06T22:30:24.976Z,50.04
2023-05-06T22:32:51.662Z,50.20
2023-05-06T22:35:18.456Z,49.93
2023-05-06T22:37:45.526Z,50.59
2023-05-06T22:40:12.915Z,50.28
2023-05-06T22:42:39.659Z,50.09
2023-05-06T22:45:07.073Z,50.31
2023-05-06T22:47:33.896Z,50.23
2023-05-06T22:50:01.371Z,50.11
2023-05-06T22:52:27.937Z,50.29
2023-05-06T22:54:54.945Z,50.27
2023-05-06T22:57:23.309Z,50.61
2023-05-06T22:59:49.956Z,50.57
2023-05-06T23:02:16.948Z,50.66
2023-05-06T23:04:43.616Z,50.78
2023-05-06T23:07:10.306Z,50.85
2023-05-06T23:09:36.939Z,50.86
2023-05-06T23:12:03.885Z,50.74
2023-05-06T23:14:30.454Z,50.68
2023-05-06T23:16:57.237Z,50.67
2023-05-06T23:19:24.095Z,50.71
2023-05-06T23:21:50.675Z,50.66
2023-05-06T23:24:17.514Z,50.85
2023-05-06T23:26:44.176Z,50.67
2023-05-06T23:29:10.831Z,50.87
2023-05-06T23:31:37.557Z,50.96
2023-05-06T23:34:04.638Z,50.81
2023-05-06T23:36:31.209Z,51.03
2023-05-06T23:38:58.121Z,50.72
2023-05-06T23:41:24.847Z,51.07
2023-05-06T23:43:51.406Z,50.70
2023-05-06T23:46:18.114Z,50.45
2023-05-06T23:48:44.754Z,50.73
2023-05-06T23:51:11.365Z,50.65
2023-05-06T23:53:38.309Z,50.73
2023-05-06T23:56:05.449Z,51.08
2023-05-06T23:58:32.054Z,50.99
